Time;durP1;ratioP1;P1;durP2;ratioP2;P2;SDS_P1;SDS_P2;PMS_P1;PMS_P2;Temp;Humidity;BMP_temperature;BMP_pressure;BME280_temperature;BME280_humidity;BME280_pressure;Samples;Min_cycle;Max_cycle;Signal;HPM_P1;HPM_P2
2022/11/15 00:01:31;;;;;;;53.55;23.92;;;;;;;7.46;100.00;94760.44;5061696;28;20024;-91
2022/11/15 00:03:57;;;;;;;55.85;23.52;;;;;;;7.46;100.00;94754.41;5078540;28;20039;-91
2022/11/15 00:06:22;;;;;;;54.30;24.48;;;;;;;7.41;100.00;94749.91;5078545;28;20046;-91
2022/11/15 00:08:48;;;;;;;49.50;23.95;;;;;;;7.27;100.00;94746.84;5065388;28;20028;-92
2022/11/15 00:11:13;;;;;;;50.33;23.00;;;;;;;7.21;100.00;94743.38;5061930;28;20116;-91
2022/11/15 00:13:39;;;;;;;47.00;21.75;;;;;;;7.40;100.00;94737.91;5061974;28;20056;-93
2022/11/15 00:16:05;;;;;;;51.15;21.70;;;;;;;7.30;100.00;94737.75;5078668;28;20028;-92
2022/11/15 00:18:30;;;;;;;45.92;21.30;;;;;;;7.38;100.00;94734.75;5061900;28;20028;-92
2022/11/15 00:21:02;;;;;;;40.17;19.17;;;;;;;7.51;100.00;94736.22;5061773;28;20024;-93
2022/11/15 00:23:27;;;;;;;50.00;22.50;;;;;;;7.11;100.00;94735.38;5061829;28;20081;-92
2022/11/15 00:25:59;;;;;;;56.45;25.27;;;;;;;7.18;100.00;94719.59;5061738;28;20020;-92
2022/11/15 00:28:26;;;;;;;52.10;22.52;;;;;;;7.08;100.00;94720.22;5045019;28;20025;-92
2022/11/15 00:30:51;;;;;;;42.08;19.00;;;;;;;7.16;100.00;94719.81;5061445;28;20379;-92
2022/11/15 00:33:17;;;;;;;38.97;18.58;;;;;;;7.28;100.00;94727.56;5061493;28;20095;-92
2022/11/15 00:35:42;;;;;;;48.58;21.55;;;;;;;7.04;100.00;94719.13;5061571;28;20020;-92
2022/11/15 00:38:07;;;;;;;36.92;18.08;;;;;;;7.22;100.00;94725.88;5061546;28;20028;-91
2022/11/15 00:40:33;;;;;;;44.97;20.13;;;;;;;7.20;100.00;94722.72;5061241;28;20437;-93
2022/11/15 00:42:58;;;;;;;39.40;18.40;;;;;;;7.30;100.00;94722.09;5044687;28;20036;-92
2022/11/15 00:45:24;;;;;;;38.00;17.63;;;;;;;7.35;100.00;94716.97;5061816;28;20464;-93
2022/11/15 00:47:50;;;;;;;39.78;17.50;;;;;;;7.36;100.00;94713.34;5077856;28;20445;-92
2022/11/15 00:50:16;;;;;;;50.17;22.27;;;;;;;7.02;100.00;94711.53;5061250;28;20028;-92
2022/11/15 00:52:42;;;;;;;50.15;22.33;;;;;;;7.15;100.00;94714.84;5061326;28;20067;-92
2022/11/15 00:55:12;;;;;;;50.78;23.10;;;;;;;7.22;100.00;94718.88;5061209;28;20020;-92
2022/11/15 00:57:38;;;;;;;55.33;22.23;;;;;;;7.17;100.00;94716.19;5044541;28;20035;-92
2022/11/15 01:00:04;;;;;;;46.55;20.52;;;;;;;7.29;100.00;94717.91;5061266;28;20020;-92
2022/11/15 01:02:29;;;;;;;45.15;20.92;;;;;;;7.05;100.00;94705.06;5061239;28;20082;-92
2022/11/15 01:04:54;;;;;;;41.13;19.13;;;;;;;6.82;100.00;94704.16;5060854;28;20036;-92
2022/11/15 01:07:20;;;;;;;39.25;17.33;;;;;;;7.08;100.00;94712.41;5061323;28;20081;-92
2022/11/15 01:09:45;;;;;;;38.35;19.10;;;;;;;6.98;100.00;94718.22;5061108;28;20028;-91
2022/11/15 01:12:11;;;;;;;47.90;19.90;;;;;;;6.93;100.00;94716.34;5044240;28;20029;-92
2022/11/15 01:14:36;;;;;;;40.40;17.95;;;;;;;7.00;100.00;94708.38;5203330;22;20062;-87
2022/11/15 01:17:01;;;;;;;42.42;18.13;;;;;;;6.82;100.00;94701.53;5064313;28;20035;-87
2022/11/15 01:19:27;;;;;;;47.38;20.05;;;;;;;6.94;100.00;94701.47;5063500;28;20030;-87
2022/11/15 01:21:52;;;;;;;43.03;18.92;;;;;;;7.04;100.00;94703.47;5080411;28;20028;-87
2022/11/15 01:24:18;;;;;;;38.55;18.25;;;;;;;7.15;100.00;94700.00;5080723;28;20028;-87
2022/11/15 01:26:43;;;;;;;42.75;19.60;;;;;;;7.05;100.00;94703.22;5064204;28;20417;-87
2022/11/15 01:29:09;;;;;;;45.00;20.50;;;;;;;7.05;100.00;94702.44;5080929;28;20366;-87
2022/11/15 01:31:34;;;;;;;39.28;19.33;;;;;;;7.18;100.00;94688.31;5080236;28;20416;-87
2022/11/15 01:34:00;;;;;;;41.70;17.95;;;;;;;7.12;100.00;94708.28;5080548;28;20032;-87
2022/11/15 01:36:25;;;;;;;35.75;16.70;;;;;;;7.24;100.00;94699.59;5063608;28;20440;-87
2022/11/15 01:38:55;;;;;;;33.90;15.82;;;;;;;7.35;100.00;94703.94;5080399;28;20028;-88
2022/11/15 01:41:30;;;;;;;33.28;16.33;;;;;;;7.00;100.00;94692.72;5063424;28;20027;-88
2022/11/15 01:44:15;;;;;;;39.65;17.48;;;;;;;6.96;100.00;94678.59;5090661;28;20070;-88
2022/11/15 01:46:46;;;;;;;41.03;17.80;;;;;;;7.02;100.00;94692.47;5080421;28;20052;-88
2022/11/15 01:49:14;;;;;;;40.22;19.02;;;;;;;6.93;100.00;94694.69;5088118;28;20020;-88
2022/11/15 01:51:39;;;;;;;42.47;17.50;;;;;;;6.82;100.00;94698.94;5061316;28;20024;-88
2022/11/15 01:54:08;;;;;;;34.97;16.00;;;;;;;7.07;100.00;94698.56;5060502;28;20101;-96
2022/11/15 01:56:40;;;;;;;36.58;16.95;;;;;;;7.00;100.00;94689.31;5067916;28;20016;-96
2022/11/15 01:59:07;;;;;;;35.72;17.13;;;;;;;7.04;100.00;94686.03;5066567;28;20024;-96
2022/11/15 02:01:33;;;;;;;39.17;17.52;;;;;;;7.09;100.00;94693.13;5069334;28;20028;-96
2022/11/15 02:04:02;;;;;;;37.25;17.08;;;;;;;7.03;100.00;94688.84;5067382;28;20371;-95
2022/11/15 02:06:28;;;;;;;40.72;18.70;;;;;;;6.79;100.00;94686.41;5066835;28;20355;-96
2022/11/15 02:08:54;;;;;;;43.88;19.63;;;;;;;6.96;100.00;94694.25;5065975;28;20035;-96
2022/11/15 02:11:20;;;;;;;41.25;19.15;;;;;;;6.98;100.00;94686.16;5065903;28;20118;-96
2022/11/15 02:13:46;;;;;;;40.55;18.55;;;;;;;7.01;100.00;94683.88;5065112;28;20404;-94
2022/11/15 02:16:49;;;;;;;41.53;18.35;;;;;;;7.24;100.00;94681.38;5064669;28;20063;-95
2022/11/15 02:19:31;;;;;;;42.25;19.17;;;;;;;7.25;100.00;94675.91;5082186;28;20400;-95
2022/11/15 02:22:03;;;;;;;43.13;18.58;;;;;;;7.26;100.00;94671.47;5082294;28;20027;-96
2022/11/15 02:24:49;;;;;;;40.13;19.15;;;;;;;7.18;100.00;94670.88;5082711;28;20409;-95
2022/11/15 02:27:52;;;;;;;38.40;17.90;;;;;;;7.19;100.00;94669.03;5081397;28;20040;-96
2022/11/15 02:30:29;;;;;;;36.45;16.90;;;;;;;7.16;100.00;94667.69;5080516;28;20024;-95
2022/11/15 02:33:00;;;;;;;41.00;18.33;;;;;;;7.13;100.00;94660.34;5081467;28;20173;-96
2022/11/15 02:35:29;;;;;;;42.75;19.35;;;;;;;7.00;100.00;94647.66;5065342;28;20063;-95
2022/11/15 02:38:06;;;;;;;37.03;18.13;;;;;;;7.08;100.00;94647.25;5065616;28;20036;-96
2022/11/15 02:40:38;;;;;;;36.40;17.90;;;;;;;7.04;100.00;94641.72;5081738;28;20043;-95
2022/11/15 02:46:03;;;;;;;36.38;17.95;;;;;;;6.88;100.00;94655.53;5083462;28;20027;-96
2022/11/15 02:48:30;;;;;;;39.58;17.63;;;;;;;6.65;100.00;94654.66;5063580;28;20028;-96
2022/11/15 02:50:55;;;;;;;46.83;20.70;;;;;;;6.71;100.00;94650.31;5063588;28;20028;-96
2022/11/15 02:53:25;;;;;;;44.10;20.05;;;;;;;6.91;100.00;94645.44;5063935;28;20080;-96
2022/11/15 02:55:51;;;;;;;42.85;19.38;;;;;;;6.89;100.00;94636.28;5063907;28;20451;-95
2022/11/15 02:58:32;;;;;;;55.03;21.40;;;;;;;6.75;100.00;94631.38;5064470;28;20028;-95
2022/11/15 03:01:50;;;;;;;43.95;19.30;;;;;;;6.83;100.00;94626.81;5081610;28;20020;-95
2022/11/15 03:04:19;;;;;;;37.97;16.75;;;;;;;6.87;100.00;94633.13;5009993;28;20066;-96
2022/11/15 03:07:00;;;;;;;38.45;17.70;;;;;;;6.87;100.00;94627.91;5081057;28;20024;-95
2022/11/15 03:09:42;;;;;;;37.53;17.58;;;;;;;6.90;100.00;94623.03;5064714;28;20390;-95
2022/11/15 03:12:43;;;;;;;33.78;16.27;;;;;;;6.78;100.00;94619.72;5064198;28;20024;-96
2022/11/15 03:15:32;;;;;;;37.28;17.17;;;;;;;6.60;100.00;94613.72;5055523;28;20036;-95
2022/11/15 03:18:05;;;;;;;38.38;17.60;;;;;;;6.73;100.00;94596.19;5064901;28;20464;-96
2022/11/15 03:20:31;;;;;;;;;;;;;;;6.99;100.00;94599.97;5064641;28;20034;-96
2022/11/15 03:23:02;;;;;;;38.00;16.67;;;;;;;7.01;100.00;94597.91;5063950;28;19998;-96
2022/11/15 03:25:29;;;;;;;40.90;19.13;;;;;;;6.79;100.00;94606.44;5064066;28;20020;-95
2022/11/15 03:27:57;;;;;;;34.80;17.08;;;;;;;6.97;100.00;94616.88;5064911;28;20028;-96
2022/11/15 03:30:22;;;;;;;39.35;18.63;;;;;;;7.03;100.00;94601.06;5064334;28;20024;-95
2022/11/15 03:32:54;;;;;;;36.97;16.98;;;;;;;7.10;100.00;94603.50;5063002;28;20027;-95
2022/11/15 03:35:29;;;;;;;37.53;17.05;;;;;;;7.21;100.00;94594.81;5063188;28;20028;-94
2022/11/15 03:38:14;;;;;;;44.10;19.23;;;;;;;6.95;100.00;94598.09;5063289;28;20059;-95
2022/11/15 03:40:42;;;;;;;37.38;18.00;;;;;;;7.04;100.00;94596.66;5063558;28;20036;-96
2022/11/15 03:43:30;;;;;;;41.65;18.77;;;;;;;7.21;100.00;94600.03;5066189;28;20052;-95
2022/11/15 03:46:01;;;;;;;40.53;18.83;;;;;;;7.32;100.00;94603.56;5042928;28;20081;-95
2022/11/15 03:48:40;;;;;;;49.40;21.38;;;;;;;7.46;100.00;94616.25;5067034;28;20443;-94
2022/11/15 03:51:05;;;;;;;45.58;20.83;;;;;;;7.49;100.00;94618.38;5067367;28;20027;-96
2022/11/15 03:53:31;;;;;;;45.30;20.88;;;;;;;7.56;100.00;94618.19;5085497;28;20031;-96
2022/11/15 03:55:57;;;;;;;54.65;22.02;;;;;;;7.34;100.00;94611.16;5069446;28;20059;-96
2022/11/15 03:58:23;;;;;;;47.97;21.30;;;;;;;7.44;100.00;94611.25;5070015;28;20020;-96
2022/11/15 04:00:48;;;;;;;41.92;19.83;;;;;;;7.64;100.00;94620.38;5068152;28;20036;-95
2022/11/15 04:03:14;;;;;;;43.45;19.80;;;;;;;7.47;100.00;94618.63;5068134;28;20036;-96
2022/11/15 04:05:39;;;;;;;37.60;17.15;;;;;;;7.35;100.00;94607.50;5067174;28;20046;-96
2022/11/15 04:08:05;;;;;;;42.35;18.98;;;;;;;7.26;100.00;94608.94;5066313;28;20035;-95
2022/11/15 04:10:30;;;;;;;38.78;17.33;;;;;;;7.24;100.00;94600.56;5082602;28;20039;-96
2022/11/15 04:12:55;;;;;;;36.80;17.75;;;;;;;7.42;100.00;94602.88;5066437;28;20035;-95
2022/11/15 04:15:24;;;;;;;42.35;19.83;;;;;;;7.17;100.00;94601.53;5066226;28;20047;-96
2022/11/15 04:17:54;;;;;;;45.17;19.65;;;;;;;7.39;100.00;94600.78;5066913;28;20433;-96
2022/11/15 04:25:56;;;;;;;45.55;20.15;;;;;;;7.76;100.00;94597.59;5085424;28;20031;-96
2022/11/15 04:28:21;;;;;;;48.03;21.90;;;;;;;7.56;100.00;94589.50;5083513;28;20024;-96
2022/11/15 04:30:47;;;;;;;54.22;22.80;;;;;;;7.41;100.00;94587.50;5066833;28;20123;-95
2022/11/15 04:33:12;;;;;;;43.42;20.13;;;;;;;7.61;100.00;94576.56;5066417;28;20081;-95
2022/11/15 04:35:38;;;;;;;44.20;19.83;;;;;;;7.54;100.00;94575.94;5082760;28;20036;-96
2022/11/15 04:38:06;;;;;;;42.95;19.52;;;;;;;7.50;100.00;94573.00;5066905;28;20055;-96
2022/11/15 04:40:31;;;;;;;43.40;19.65;;;;;;;7.75;100.00;94574.34;5067552;28;20031;-96
2022/11/15 04:42:57;;;;;;;45.13;19.83;;;;;;;7.85;100.00;94582.28;5066791;28;20024;-96
2022/11/15 04:45:44;;;;;;;44.67;19.90;;;;;;;8.13;100.00;94567.44;5066947;28;20375;-96
2022/11/15 04:48:10;;;;;;;40.55;18.80;;;;;;;8.00;100.00;94576.44;5066985;28;20032;-95
2022/11/15 04:50:35;;;;;;;42.03;19.20;;;;;;;7.76;100.00;94578.53;5083342;28;20030;-96
2022/11/15 04:53:04;;;;;;;41.63;19.08;;;;;;;7.77;100.00;94585.31;5065583;28;20031;-95
2022/11/15 04:55:29;;;;;;;39.75;18.67;;;;;;;7.79;100.00;94575.44;5065597;28;20024;-96
2022/11/15 04:58:01;;;;;;;35.60;17.40;;;;;;;8.01;100.00;94572.78;5065863;28;20351;-96
2022/11/15 05:00:28;;;;;;;39.83;18.05;;;;;;;7.94;100.00;94574.81;5082617;28;20378;-96
2022/11/15 05:05:37;;;;;;;47.65;18.98;;;;;;;7.99;100.00;94566.25;5085142;28;20047;-96
2022/11/15 05:08:09;;;;;;;38.75;18.58;;;;;;;7.89;100.00;94570.34;5066188;28;20032;-96
2022/11/15 05:10:34;;;;;;;38.38;17.40;;;;;;;7.86;100.00;94567.41;5082448;28;20036;-96
2022/11/15 05:26:29;;;;;;;44.55;19.73;;;;;;;7.61;100.00;94553.84;5100112;28;20031;-95
2022/11/15 05:29:16;;;;;;;43.30;19.52;;;;;;;7.74;100.00;94552.69;5065398;28;20032;-96
2022/11/15 05:32:14;;;;;;;45.15;19.95;;;;;;;7.67;100.00;94551.28;5065892;28;20130;-96
2022/11/15 05:34:51;;;;;;;47.78;19.60;;;;;;;7.78;100.00;94563.41;5065675;28;20036;-96
2022/11/15 05:37:17;;;;;;;48.50;20.48;;;;;;;7.78;100.00;94558.19;5065405;28;20111;-96
2022/11/15 05:56:38;;;;;;;34.95;15.70;;;;;;;8.35;100.00;94548.31;5098366;28;20100;-96
2022/11/15 05:59:03;;;;;;;40.53;16.48;;;;;;;8.09;100.00;94553.28;5064320;28;20076;-96
2022/11/15 06:02:07;;;;;;;39.08;17.60;;;;;;;8.07;100.00;94545.72;5063906;28;20484;-96
2022/11/15 06:11:23;;;;;;;36.83;17.30;;;;;;;8.14;100.00;94555.16;4982030;28;20470;-95
2022/11/15 06:13:49;;;;;;;33.63;16.60;;;;;;;8.11;100.00;94556.47;4980487;28;20033;-95
2022/11/15 06:16:14;;;;;;;36.88;17.73;;;;;;;8.05;100.00;94550.41;5032891;28;20051;-96
2022/11/15 06:22:02;;;;;;;38.17;17.27;;;;;;;8.39;100.00;94548.63;5098136;28;20348;-95
2022/11/15 06:25:11;;;;;;;31.13;15.63;;;;;;;8.59;100.00;94545.41;5063783;28;20024;-95
2022/11/15 06:28:41;;;;;;;;;;;;;;;;;;;;;
2022/11/15 06:31:32;;;;;;;33.30;16.02;;;;;;;8.66;100.00;94545.19;4929921;28;20034;-95
2022/11/15 06:33:56;;;;;;;31.73;14.88;;;;;;;8.58;100.00;94552.44;5032139;28;20123;-95
2022/11/15 06:39:45;;;;;;;32.85;15.25;;;;;;;8.53;100.00;94556.84;5097690;28;20062;-95
2022/11/15 06:52:21;;;;;;;32.92;16.17;;;;;;;8.43;100.00;94554.91;4996079;28;20066;-95
2022/11/15 06:54:46;;;;;;;34.50;15.82;;;;;;;8.56;100.00;94562.34;4980001;28;20030;-95
2022/11/15 07:03:59;;;;;;;27.48;15.13;;;;;;;8.75;100.00;94549.69;4996813;28;20061;-96
2022/11/15 07:06:28;;;;;;;31.52;15.70;;;;;;;8.96;100.00;94559.50;4979456;28;20030;-92
2022/11/15 07:09:27;;;;;;;29.52;15.70;;;;;;;9.10;100.00;94557.22;4995701;28;20451;-92
2022/11/15 07:11:52;;;;;;;34.03;15.63;;;;;;;9.11;100.00;94554.38;5043799;28;20081;-92
2022/11/15 07:21:17;;;;;;;33.65;15.48;;;;;;;8.79;100.00;94567.47;5000116;28;20363;-96
2022/11/15 07:23:49;;;;;;;33.35;16.85;;;;;;;9.09;100.00;94569.53;4967928;28;20030;-95
2022/11/15 07:26:14;;;;;;;31.35;16.27;;;;;;;8.91;100.00;94566.28;4967846;28;20077;-96
2022/11/15 07:28:40;;;;;;;35.03;16.65;;;;;;;9.21;100.00;94569.31;4967888;28;20030;-96
2022/11/15 07:31:15;;;;;;;33.28;15.75;;;;;;;9.44;100.00;94565.50;4982589;28;20036;-96
2022/11/15 07:33:41;;;;;;;32.53;15.38;;;;;;;9.30;100.00;94565.19;5066943;28;20345;-96
2022/11/15 07:36:39;;;;;;;29.02;14.90;;;;;;;9.67;100.00;94558.28;5066465;28;20039;-95
2022/11/15 07:39:11;;;;;;;29.27;14.43;;;;;;;9.54;100.00;94571.84;4983821;28;20137;-96
2022/11/15 07:45:51;;;;;;;26.77;14.45;;;;;;;9.45;100.00;94563.69;5100946;28;20084;-95
2022/11/15 08:04:51;;;;;;;31.50;17.63;;;;;;;10.32;100.00;94557.91;4977770;28;20085;-96
2022/11/15 08:07:17;;;;;;;40.95;20.98;;;;;;;10.45;100.00;94554.03;4967025;28;20030;-96
2022/11/15 08:09:42;;;;;;;25.63;13.98;;;;;;;10.54;100.00;94551.69;5019873;28;20029;-96
2022/11/15 08:12:08;;;;;;;29.65;15.57;;;;;;;10.65;100.00;94554.31;5063666;28;20039;-96
2022/11/15 08:14:34;;;;;;;27.00;13.68;;;;;;;10.52;100.00;94548.53;5066461;28;20031;-96
2022/11/15 08:17:00;;;;;;;25.30;13.73;;;;;;;10.67;100.00;94552.22;5082478;28;20449;-96
2022/11/15 08:19:25;;;;;;;32.03;18.75;;;;;;;10.82;100.00;94546.94;5065940;28;20105;-96
2022/11/15 08:21:51;;;;;;;25.40;14.18;;;;;;;10.52;100.00;94545.13;5082697;28;20028;-95
2022/11/15 08:24:16;;;;;;;31.33;16.40;;;;;;;10.80;100.00;94549.06;5065603;28;20127;-95
2022/11/15 08:26:42;;;;;;;23.27;14.07;;;;;;;10.42;100.00;94543.28;5065732;28;20016;-96
2022/11/15 08:29:08;;;;;;;23.15;13.55;;;;;;;10.60;100.00;94541.97;5065410;28;20095;-95
2022/11/15 08:31:36;;;;;;;26.88;14.50;;;;;;;10.67;100.00;94542.50;5065804;28;20132;-95
2022/11/15 08:34:03;;;;;;;28.33;14.18;;;;;;;11.05;100.00;94534.34;5065788;28;20020;-96
2022/11/15 08:36:28;;;;;;;24.50;14.20;;;;;;;11.30;100.00;94536.09;5065424;28;20024;-96
2022/11/15 08:38:54;;;;;;;27.15;14.55;;;;;;;11.21;100.00;94535.06;5065511;28;20024;-95
2022/11/15 08:41:32;;;;;;;33.88;17.85;;;;;;;11.46;100.00;94521.09;5065513;28;20028;-96
2022/11/15 08:43:58;;;;;;;24.80;13.55;;;;;;;11.61;100.00;94516.81;5065122;28;20024;-95
2022/11/15 08:46:23;;;;;;;20.48;12.00;;;;;;;11.60;100.00;94531.81;5065588;28;20425;-95
2022/11/15 08:48:49;;;;;;;24.17;13.50;;;;;;;11.42;100.00;94514.81;5065274;28;20055;-94
2022/11/15 08:51:14;;;;;;;24.45;13.77;;;;;;;11.23;100.00;94522.47;5079371;28;20690;-94
2022/11/15 08:53:40;;;;;;;29.88;14.50;;;;;;;11.61;100.00;94516.81;5061312;28;20028;-94
2022/11/15 08:56:13;;;;;;;26.45;14.30;;;;;;;11.36;100.00;94522.97;5044867;28;20090;-94
2022/11/15 08:58:39;;;;;;;70.18;38.50;;;;;;;11.60;100.00;94516.06;5062053;28;20372;-94
2022/11/15 09:01:05;;;;;;;24.58;14.35;;;;;;;11.61;100.00;94511.56;5061108;28;20036;-94
2022/11/15 09:06:34;;;;;;;23.45;14.15;;;;;;;12.01;100.00;94515.06;5038276;28;20105;-94
2022/11/15 09:09:13;;;;;;;25.00;13.50;;;;;;;12.52;100.00;94521.03;5059531;28;20024;-94
2022/11/15 09:11:45;;;;;;;24.90;14.02;;;;;;;12.49;100.00;94523.41;5064672;28;20121;-92
2022/11/15 09:14:19;;;;;;;20.83;12.88;;;;;;;12.37;100.00;94521.94;5064467;28;20028;-94
2022/11/15 09:16:48;;;;;;;26.00;14.55;;;;;;;12.99;100.00;94524.03;5080919;28;20085;-93
2022/11/15 09:19:32;;;;;;;20.23;12.20;;;;;;;12.92;100.00;94520.19;5080793;28;20097;-92
2022/11/15 09:21:57;;;;;;;20.05;11.57;;;;;;;12.63;100.00;94526.22;5078661;28;20068;-92
2022/11/15 09:24:35;;;;;;;22.38;11.85;;;;;;;12.61;100.00;94520.44;5080565;28;20384;-91
2022/11/15 09:27:00;;;;;;;20.92;11.70;;;;;;;12.23;100.00;94511.25;5080561;28;20123;-93
2022/11/15 09:29:26;;;;;;;21.45;11.43;;;;;;;12.66;100.00;94517.78;5080659;28;20048;-92
2022/11/15 09:35:28;;;;;;;21.58;11.30;;;;;;;12.52;100.00;94518.41;4989790;28;20096;-94
2022/11/15 09:41:12;;;;;;;16.95;10.25;;;;;;;12.69;100.00;94506.69;5059225;28;20024;-95
2022/11/15 09:44:12;;;;;;;20.50;10.75;;;;;;;12.54;100.00;94511.03;5080393;28;20072;-95
2022/11/15 09:46:46;;;;;;;20.63;10.95;;;;;;;12.71;100.00;94515.88;5080761;28;20055;-96
2022/11/15 09:49:14;;;;;;;17.40;10.50;;;;;;;12.63;100.00;94511.22;5064112;28;20054;-95
2022/11/15 09:51:46;;;;;;;17.38;11.15;;;;;;;12.59;100.00;94510.97;5063993;28;20440;-96
2022/11/15 09:54:11;;;;;;;23.20;11.25;;;;;;;12.49;100.00;94508.44;5064509;28;20069;-95
2022/11/15 09:56:41;;;;;;;20.05;11.77;;;;;;;12.48;100.00;94506.88;5080478;28;20028;-95
2022/11/15 09:59:29;;;;;;;19.75;11.55;;;;;;;13.22;100.00;94511.16;5080273;28;20027;-94
2022/11/15 10:02:09;;;;;;;16.80;10.48;;;;;;;13.02;100.00;94504.28;5080472;28;20020;-95
2022/11/15 10:05:23;;;;;;;18.75;11.43;;;;;;;13.28;100.00;94504.81;5063927;28;20081;-96
2022/11/15 10:08:18;;;;;;;21.05;11.40;;;;;;;13.57;100.00;94487.38;5077840;28;20032;-96
2022/11/15 10:10:47;;;;;;;20.80;11.48;;;;;;;13.59;100.00;94482.63;5071161;28;20035;-96
2022/11/15 10:13:42;;;;;;;19.33;10.48;;;;;;;13.68;100.00;94475.66;5063636;28;20332;-95
2022/11/15 10:16:26;;;;;;;22.95;10.85;;;;;;;13.62;100.00;94468.88;5078119;28;20463;-95
2022/11/15 10:19:03;;;;;;;;;;;;;;;13.42;100.00;94454.13;5080755;28;20577;-96
2022/11/15 10:21:45;;;;;;;17.67;10.82;;;;;;;13.63;100.00;94453.88;5063349;28;19908;-95
2022/11/15 10:24:12;;;;;;;18.48;10.48;;;;;;;13.78;100.00;94450.25;5063350;28;20371;-95
2022/11/15 10:26:38;;;;;;;23.60;11.57;;;;;;;13.80;100.00;94448.13;5063445;28;20016;-95
2022/11/15 10:29:04;;;;;;;17.25;10.40;;;;;;;13.84;100.00;94449.13;5063230;28;20019;-94
2022/11/15 10:31:29;;;;;;;76.38;12.98;;;;;;;13.80;100.00;94450.75;5063311;28;20421;-95
2022/11/15 10:34:19;;;;;;;137.63;13.13;;;;;;;13.95;100.00;94440.00;5079754;28;20020;-95
2022/11/15 10:37:39;;;;;;;16.42;10.10;;;;;;;13.85;100.00;94433.03;5063226;28;20059;-95
2022/11/15 10:43:37;;;;;;;16.48;9.98;;;;;;;12.93;100.00;94419.97;4957358;28;20094;-94
2022/11/15 10:46:50;;;;;;;22.75;13.02;;;;;;;12.90;100.00;94410.00;4979236;28;20411;-96
2022/11/15 10:52:22;;;;;;;18.45;10.43;;;;;;;13.43;100.00;94403.84;5029554;28;20374;-94
2022/11/15 10:55:26;;;;;;;22.77;11.27;;;;;;;13.90;100.00;94397.16;4983167;28;20029;-95
2022/11/15 10:57:54;;;;;;;18.20;10.48;;;;;;;13.60;100.00;94389.41;4973354;28;20042;-95
2022/11/15 11:04:36;;;;;;;17.27;10.77;;;;;;;13.42;100.00;94383.06;5068239;28;20027;-94
2022/11/15 11:07:37;;;;;;;19.92;10.88;;;;;;;13.48;100.00;94381.94;5079419;28;20028;-94
2022/11/15 11:17:33;;;;;;;26.05;12.93;;;;;;;14.01;100.00;94374.84;5004758;28;20077;-94
2022/11/15 11:20:00;;;;;;;23.38;12.57;;;;;;;13.85;100.00;94371.66;5079353;28;20147;-94
2022/11/15 11:22:32;;;;;;;23.42;12.52;;;;;;;14.34;100.00;94360.84;5062710;28;20122;-94
2022/11/15 11:25:04;;;;;;;21.83;12.05;;;;;;;13.79;100.00;94359.66;5062831;28;20327;-94
2022/11/15 11:27:57;;;;;;;19.40;12.07;;;;;;;13.84;100.00;94349.84;5079187;28;20024;-95
2022/11/15 11:30:31;;;;;;;20.15;11.60;;;;;;;13.68;100.00;94353.75;5027796;28;20128;-95
2022/11/15 11:33:29;;;;;;;24.30;13.43;;;;;;;14.28;100.00;94342.50;5079065;28;20039;-94
2022/11/15 11:36:06;;;;;;;20.20;11.75;;;;;;;14.39;100.00;94342.34;5062284;28;20040;-94
2022/11/15 11:38:58;;;;;;;21.77;13.10;;;;;;;14.06;100.00;94334.44;5062405;28;20032;-95
2022/11/15 11:41:30;;;;;;;21.42;11.50;;;;;;;13.56;100.00;94328.69;5062510;28;20122;-95
2022/11/15 11:44:14;;;;;;;27.10;14.65;;;;;;;13.14;100.00;94328.44;5079171;28;20348;-94
2022/11/15 11:46:56;;;;;;;57.97;34.72;;;;;;;13.48;100.00;94320.63;5078971;28;20028;-95
2022/11/15 11:49:33;;;;;;;56.17;13.13;;;;;;;13.27;100.00;94311.19;5062199;28;20118;-94
2022/11/15 11:52:49;;;;;;;23.00;13.73;;;;;;;13.67;100.00;94312.69;5078874;28;20028;-95
2022/11/15 11:55:22;;;;;;;22.73;11.98;;;;;;;13.69;100.00;94308.72;4979187;28;20030;-95
2022/11/15 11:58:14;;;;;;;21.58;12.00;;;;;;;14.01;100.00;94303.75;4963261;28;20037;-94
2022/11/15 12:01:55;;;;;;;43.15;17.83;;;;;;;14.48;100.00;94293.13;5057205;28;20020;-95
2022/11/15 12:04:57;;;;;;;24.65;13.52;;;;;;;13.74;100.00;94307.88;5099437;28;20024;-94
2022/11/15 12:11:07;;;;;;;26.70;14.30;;;;;;;13.79;100.00;94293.84;4998707;28;20057;-94
2022/11/15 12:14:25;;;;;;;26.40;14.60;;;;;;;14.15;100.00;94287.94;5090234;28;20035;-94
2022/11/15 12:16:51;;;;;;;60.42;31.08;;;;;;;13.61;100.00;94288.31;5081141;28;20065;-94
2022/11/15 12:19:35;;;;;;;36.15;21.15;;;;;;;13.52;100.00;94284.78;5082838;28;20020;-95
2022/11/15 12:22:38;;;;;;;27.35;15.18;;;;;;;13.20;100.00;94278.38;5040819;28;20215;-95
2022/11/15 12:32:53;;;;;;;26.75;16.00;;;;;;;13.84;100.00;94260.31;5026509;28;20509;-94
2022/11/15 12:35:38;;;;;;;28.63;14.95;;;;;;;13.65;100.00;94246.41;5015323;28;20409;-96
2022/11/15 12:38:54;;;;;;;32.22;14.23;;;;;;;13.35;100.00;94258.97;5005552;28;20530;-95
2022/11/15 12:41:21;;;;;;;23.27;13.05;;;;;;;13.64;100.00;94248.28;5021523;28;20112;-95
2022/11/15 12:43:48;;;;;;;24.45;14.65;;;;;;;13.52;100.00;94238.19;5058026;28;20045;-88
2022/11/15 12:46:31;;;;;;;63.80;16.27;;;;;;;13.48;100.00;94245.09;5045018;28;20342;-88
2022/11/15 12:49:00;;;;;;;56.35;15.30;;;;;;;13.18;100.00;94246.31;5061324;28;20033;-88
2022/11/15 12:51:47;;;;;;;21.65;13.43;;;;;;;13.61;100.00;94246.19;5044443;28;20032;-88
2022/11/15 12:54:22;;;;;;;25.38;15.20;;;;;;;13.42;100.00;94236.47;5085489;28;20024;-88
2022/11/15 12:57:02;;;;;;;24.15;13.75;;;;;;;13.11;100.00;94236.16;5099025;28;20321;-88
2022/11/15 12:59:51;;;;;;;26.63;14.85;;;;;;;13.09;100.00;94225.13;5081106;28;20088;-88
2022/11/15 13:02:18;;;;;;;25.70;14.63;;;;;;;13.01;100.00;94229.19;5098820;28;20028;-88
2022/11/15 13:04:44;;;;;;;27.60;16.02;;;;;;;12.76;100.00;94223.22;5098728;28;20032;-88
2022/11/15 13:07:52;;;;;;;32.42;18.60;;;;;;;13.25;100.00;94209.91;5080807;28;20035;-89
2022/11/15 13:10:26;;;;;;;156.55;40.88;;;;;;;13.21;100.00;94208.94;5092381;28;20043;-88
2022/11/15 13:12:52;;;;;;;204.85;33.20;;;;;;;13.04;100.00;94207.59;5098997;28;20043;-88
2022/11/15 13:15:21;;;;;;;337.80;27.13;;;;;;;12.78;100.00;94207.97;5097864;28;20032;-88
2022/11/15 13:17:50;;;;;;;63.15;21.88;;;;;;;12.65;100.00;94208.69;5098650;28;20385;-88
2022/11/15 13:20:16;;;;;;;56.72;26.23;;;;;;;12.52;100.00;94213.56;5080324;28;20027;-88
2022/11/15 13:22:59;;;;;;;38.83;19.52;;;;;;;13.03;100.00;94210.50;5080714;28;20023;-88
2022/11/15 13:26:21;;;;;;;113.47;23.98;;;;;;;12.64;100.00;94205.25;5066312;28;20459;-87
2022/11/15 13:28:50;;;;;;;43.35;21.73;;;;;;;12.58;100.00;94201.16;5062701;28;20322;-88
2022/11/15 13:31:57;;;;;;;41.35;20.55;;;;;;;12.91;100.00;94193.31;5059789;28;20059;-88
2022/11/15 13:34:32;;;;;;;50.65;23.02;;;;;;;12.38;100.00;94191.69;4997066;28;20034;-87
2022/11/15 13:37:37;;;;;;;43.28;22.50;;;;;;;12.61;100.00;94184.81;5036291;28;20064;-88
2022/11/15 13:40:30;;;;;;;40.55;21.90;;;;;;;12.93;100.00;94179.91;4996680;28;20059;-87
2022/11/15 13:42:57;;;;;;;156.32;24.75;;;;;;;13.06;100.00;94178.38;4977470;28;20498;-87
2022/11/15 13:45:39;;;;;;;542.50;44.03;;;;;;;12.59;100.00;94177.19;4996526;28;20081;-88
2022/11/15 13:48:06;;;;;;;217.38;31.60;;;;;;;12.71;100.00;94173.38;4980310;28;20105;-88
2022/11/15 13:50:33;;;;;;;58.80;28.17;;;;;;;12.34;100.00;94164.41;5006263;28;20049;-88
2022/11/15 13:53:03;;;;;;;53.72;26.50;;;;;;;12.59;100.00;94168.53;5060223;28;20043;-88
2022/11/15 13:55:32;;;;;;;55.05;28.10;;;;;;;12.45;100.00;94173.72;5059618;28;20119;-88
2022/11/15 13:58:44;;;;;;;57.00;28.08;;;;;;;12.44;100.00;94172.16;5060378;28;20040;-87
2022/11/15 14:01:19;;;;;;;58.40;25.98;;;;;;;12.59;100.00;94171.19;5076792;28;20055;-88
2022/11/15 14:04:29;;;;;;;60.42;30.35;;;;;;;12.95;100.00;94167.25;5043641;28;20075;-88
2022/11/15 14:06:57;;;;;;;85.95;34.33;;;;;;;12.87;100.00;94168.69;5044558;28;20037;-88